sensor_id;sensor_type;location;lat;lon;timestamp;P1;durP1;ratioP1;P2;durP2;ratioP2
18499;SDS011;9379;52.134;11.576;2022-07-29T00:01:35;1.73;;;1.00;;
18499;SDS011;9379;52.134;11.576;2022-07-29T00:30:30;0.65;;;0.65;;
18499;SDS011;9379;52.134;11.576;2022-07-29T00:32:57;1.33;;;1.00;;
18499;SDS011;9379;52.134;11.576;2022-07-29T00:35:24;1.23;;;1.13;;
18499;SDS011;9379;52.134;11.576;2022-07-29T00:38:08;1.48;;;1.20;;
18499;SDS011;9379;52.134;11.576;2022-07-29T00:40:34;1.40;;;0.68;;
18499;SDS011;9379;52.134;11.576;2022-07-29T00:43:01;1.75;;;1.25;;
18499;SDS011;9379;52.134;11.576;2022-07-29T00:45:30;2.53;;;1.65;;
18499;SDS011;9379;52.134;11.576;2022-07-29T00:47:57;1.67;;;1.00;;
18499;SDS011;9379;52.134;11.576;2022-07-29T00:50:24;1.00;;;0.80;;
18499;SDS011;9379;52.134;11.576;2022-07-29T00:52:51;2.63;;;1.75;;
18499;SDS011;9379;52.134;11.576;2022-07-29T00:55:19;1.23;;;0.93;;
18499;SDS011;9379;52.134;11.576;2022-07-29T00:57:46;3.00;;;1.20;;
18499;SDS011;9379;52.134;11.576;2022-07-29T01:00:14;1.33;;;0.77;;
18499;SDS011;9379;52.134;11.576;2022-07-29T01:02:44;0.93;;;0.82;;
18499;SDS011;9379;52.134;11.576;2022-07-29T01:05:13;1.10;;;0.85;;
18499;SDS011;9379;52.134;11.576;2022-07-29T01:07:41;2.35;;;1.17;;
18499;SDS011;9379;52.134;11.576;2022-07-29T01:10:09;0.95;;;0.80;;
18499;SDS011;9379;52.134;11.576;2022-07-29T01:12:38;2.05;;;0.90;;
18499;SDS011;9379;52.134;11.576;2022-07-29T01:15:07;0.73;;;0.70;;
18499;SDS011;9379;52.134;11.576;2022-07-29T01:17:36;2.88;;;1.30;;
18499;SDS011;9379;52.134;11.576;2022-07-29T01:20:12;2.25;;;1.75;;
18499;SDS011;9379;52.134;11.576;2022-07-29T01:22:53;3.03;;;1.48;;
18499;SDS011;9379;52.134;11.576;2022-07-29T01:28:48;1.23;;;1.05;;
18499;SDS011;9379;52.134;11.576;2022-07-29T01:31:26;1.63;;;1.00;;
18499;SDS011;9379;52.134;11.576;2022-07-29T01:34:03;1.63;;;1.35;;
18499;SDS011;9379;52.134;11.576;2022-07-29T01:36:36;1.08;;;1.02;;
18499;SDS011;9379;52.134;11.576;2022-07-29T01:39:08;2.95;;;0.80;;
18499;SDS011;9379;52.134;11.576;2022-07-29T01:41:40;1.05;;;0.95;;
18499;SDS011;9379;52.134;11.576;2022-07-29T01:44:16;1.85;;;1.20;;
18499;SDS011;9379;52.134;11.576;2022-07-29T01:46:49;1.65;;;0.98;;
18499;SDS011;9379;52.134;11.576;2022-07-29T01:49:24;2.97;;;1.17;;
18499;SDS011;9379;52.134;11.576;2022-07-29T05:19:22;4.65;;;2.28;;
18499;SDS011;9379;52.134;11.576;2022-07-29T05:21:49;4.13;;;2.53;;
18499;SDS011;9379;52.134;11.576;2022-07-29T05:24:20;2.30;;;2.10;;
18499;SDS011;9379;52.134;11.576;2022-07-29T05:26:47;5.63;;;2.10;;
18499;SDS011;9379;52.134;11.576;2022-07-29T05:29:17;2.45;;;2.17;;
18499;SDS011;9379;52.134;11.576;2022-07-29T05:31:55;2.60;;;2.35;;
18499;SDS011;9379;52.134;11.576;2022-07-29T05:34:25;2.17;;;1.98;;
18499;SDS011;9379;52.134;11.576;2022-07-29T05:36:52;4.30;;;2.03;;
18499;SDS011;9379;52.134;11.576;2022-07-29T05:39:22;6.00;;;2.78;;
18499;SDS011;9379;52.134;11.576;2022-07-29T05:41:56;2.67;;;2.47;;
18499;SDS011;9379;52.134;11.576;2022-07-29T05:44:23;3.40;;;2.10;;
18499;SDS011;9379;52.134;11.576;2022-07-29T05:46:56;3.75;;;2.05;;
18499;SDS011;9379;52.134;11.576;2022-07-29T06:13:36;3.28;;;2.58;;
18499;SDS011;9379;52.134;11.576;2022-07-29T06:16:48;3.20;;;2.08;;
18499;SDS011;9379;52.134;11.576;2022-07-29T06:19:58;8.45;;;3.13;;
18499;SDS011;9379;52.134;11.576;2022-07-29T06:23:06;3.35;;;2.40;;
18499;SDS011;9379;52.134;11.576;2022-07-29T06:26:12;1.92;;;1.83;;
18499;SDS011;9379;52.134;11.576;2022-07-29T06:39:41;1.85;;;1.67;;
18499;SDS011;9379;52.134;11.576;2022-07-29T06:42:52;6.18;;;3.55;;
18499;SDS011;9379;52.134;11.576;2022-07-29T06:46:08;2.53;;;2.33;;
18499;SDS011;9379;52.134;11.576;2022-07-29T06:49:44;2.83;;;2.08;;
18499;SDS011;9379;52.134;11.576;2022-07-29T06:53:09;3.55;;;2.50;;
18499;SDS011;9379;52.134;11.576;2022-07-29T07:06:29;2.70;;;1.80;;
18499;SDS011;9379;52.134;11.576;2022-07-29T07:09:20;2.25;;;2.08;;
18499;SDS011;9379;52.134;11.576;2022-07-29T07:15:59;3.47;;;1.63;;
18499;SDS011;9379;52.134;11.576;2022-07-29T07:18:52;1.70;;;1.60;;
18499;SDS011;9379;52.134;11.576;2022-07-29T07:23:22;1.75;;;1.65;;
18499;SDS011;9379;52.134;11.576;2022-07-29T07:25:50;2.97;;;2.70;;
18499;SDS011;9379;52.134;11.576;2022-07-29T07:28:58;3.75;;;2.92;;
18499;SDS011;9379;52.134;11.576;2022-07-29T07:32:35;2.88;;;1.83;;
18499;SDS011;9379;52.134;11.576;2022-07-29T07:39:01;3.83;;;2.20;;
18499;SDS011;9379;52.134;11.576;2022-07-29T07:42:03;7.85;;;3.13;;
18499;SDS011;9379;52.134;11.576;2022-07-29T07:45:04;6.15;;;2.22;;
18499;SDS011;9379;52.134;11.576;2022-07-29T07:51:35;9.02;;;3.35;;
18499;SDS011;9379;52.134;11.576;2022-07-29T08:01:17;4.57;;;2.72;;
18499;SDS011;9379;52.134;11.576;2022-07-29T08:03:56;11.75;;;4.50;;
18499;SDS011;9379;52.134;11.576;2022-07-29T08:07:01;3.55;;;2.15;;
18499;SDS011;9379;52.134;11.576;2022-07-29T08:16:11;7.07;;;2.75;;
18499;SDS011;9379;52.134;11.576;2022-07-29T08:19:36;3.33;;;3.05;;
18499;SDS011;9379;52.134;11.576;2022-07-29T08:27:03;4.18;;;2.63;;
18499;SDS011;9379;52.134;11.576;2022-07-29T08:28:48;7.05;;;3.45;;
18499;SDS011;9379;52.134;11.576;2022-07-29T08:31:42;3.15;;;2.15;;
18499;SDS011;9379;52.134;11.576;2022-07-29T08:37:59;2.85;;;2.58;;
18499;SDS011;9379;52.134;11.576;2022-07-29T08:40:47;5.07;;;2.67;;
18499;SDS011;9379;52.134;11.576;2022-07-29T08:44:06;3.30;;;2.20;;
18499;SDS011;9379;52.134;11.576;2022-07-29T08:47:16;3.45;;;1.80;;
18499;SDS011;9379;52.134;11.576;2022-07-29T08:50:57;3.10;;;2.40;;
18499;SDS011;9379;52.134;11.576;2022-07-29T09:00:55;4.13;;;2.67;;
18499;SDS011;9379;52.134;11.576;2022-07-29T09:03:58;3.30;;;2.85;;
18499;SDS011;9379;52.134;11.576;2022-07-29T09:06:47;4.25;;;2.33;;
18499;SDS011;9379;52.134;11.576;2022-07-29T09:10:02;3.33;;;3.00;;
18499;SDS011;9379;52.134;11.576;2022-07-29T09:14:59;2.97;;;2.72;;
18499;SDS011;9379;52.134;11.576;2022-07-29T09:19:30;4.10;;;3.30;;
18499;SDS011;9379;52.134;11.576;2022-07-29T09:22:52;5.88;;;3.92;;
18499;SDS011;9379;52.134;11.576;2022-07-29T09:43:53;4.72;;;2.53;;
18499;SDS011;9379;52.134;11.576;2022-07-29T09:46:39;7.20;;;3.03;;
18499;SDS011;9379;52.134;11.576;2022-07-29T09:49:50;4.40;;;2.67;;
18499;SDS011;9379;52.134;11.576;2022-07-29T09:54:20;4.72;;;2.47;;
18499;SDS011;9379;52.134;11.576;2022-07-29T09:56:55;3.53;;;2.65;;
18499;SDS011;9379;52.134;11.576;2022-07-29T10:00:08;7.40;;;2.00;;
18499;SDS011;9379;52.134;11.576;2022-07-29T10:03:10;5.55;;;2.38;;
18499;SDS011;9379;52.134;11.576;2022-07-29T10:06:29;4.28;;;2.22;;
18499;SDS011;9379;52.134;11.576;2022-07-29T10:16:57;3.00;;;1.67;;
18499;SDS011;9379;52.134;11.576;2022-07-29T10:19:52;3.22;;;1.67;;
18499;SDS011;9379;52.134;11.576;2022-07-29T10:47:30;2.88;;;1.67;;
18499;SDS011;9379;52.134;11.576;2022-07-29T10:50:15;3.92;;;1.95;;
18499;SDS011;9379;52.134;11.576;2022-07-29T10:53:01;3.53;;;2.85;;
18499;SDS011;9379;52.134;11.576;2022-07-29T10:55:33;2.80;;;2.05;;
18499;SDS011;9379;52.134;11.576;2022-07-29T10:58:14;6.63;;;2.38;;
18499;SDS011;9379;52.134;11.576;2022-07-29T11:00:42;6.03;;;1.50;;
18499;SDS011;9379;52.134;11.576;2022-07-29T11:06:28;2.17;;;1.75;;
18499;SDS011;9379;52.134;11.576;2022-07-29T11:27:13;2.72;;;1.50;;
18499;SDS011;9379;52.134;11.576;2022-07-29T11:29:56;2.78;;;1.55;;
18499;SDS011;9379;52.134;11.576;2022-07-29T11:32:35;4.07;;;1.50;;
18499;SDS011;9379;52.134;11.576;2022-07-29T18:21:43;2.38;;;2.17;;
18499;SDS011;9379;52.134;11.576;2022-07-29T18:25:35;2.65;;;2.03;;
18499;SDS011;9379;52.134;11.576;2022-07-29T18:31:04;3.13;;;2.33;;
18499;SDS011;9379;52.134;11.576;2022-07-29T18:33:58;2.90;;;2.38;;
18499;SDS011;9379;52.134;11.576;2022-07-29T18:40:36;3.00;;;2.80;;
18499;SDS011;9379;52.134;11.576;2022-07-29T18:50:08;3.05;;;2.72;;
18499;SDS011;9379;52.134;11.576;2022-07-29T19:52:16;1.88;;;1.77;;
18499;SDS011;9379;52.134;11.576;2022-07-29T19:55:17;1.73;;;1.63;;
18499;SDS011;9379;52.134;11.576;2022-07-29T19:58:30;2.05;;;1.95;;
18499;SDS011;9379;52.134;11.576;2022-07-29T20:01:43;2.28;;;1.65;;
18499;SDS011;9379;52.134;11.576;2022-07-29T20:04:38;2.33;;;1.88;;
18499;SDS011;9379;52.134;11.576;2022-07-29T20:08:06;3.38;;;2.03;;
18499;SDS011;9379;52.134;11.576;2022-07-29T20:11:05;4.65;;;3.40;;
18499;SDS011;9379;52.134;11.576;2022-07-29T20:17:31;1.70;;;1.60;;
18499;SDS011;9379;52.134;11.576;2022-07-29T20:37:07;2.70;;;2.45;;
18499;SDS011;9379;52.134;11.576;2022-07-29T20:40:35;4.10;;;2.85;;
18499;SDS011;9379;52.134;11.576;2022-07-29T20:47:04;2.10;;;2.00;;
18499;SDS011;9379;52.134;11.576;2022-07-29T20:50:02;3.22;;;1.98;;
18499;SDS011;9379;52.134;11.576;2022-07-29T20:53:17;1.80;;;1.70;;
18499;SDS011;9379;52.134;11.576;2022-07-29T20:57:32;2.33;;;2.15;;
18499;SDS011;9379;52.134;11.576;2022-07-29T21:06:08;4.32;;;1.98;;
18499;SDS011;9379;52.134;11.576;2022-07-29T21:08:55;4.90;;;2.65;;
18499;SDS011;9379;52.134;11.576;2022-07-29T21:16:53;3.13;;;1.95;;
18499;SDS011;9379;52.134;11.576;2022-07-29T22:46:29;2.33;;;2.03;;
18499;SDS011;9379;52.134;11.576;2022-07-29T22:53:30;3.08;;;2.78;;
18499;SDS011;9379;52.134;11.576;2022-07-29T22:56:49;2.13;;;1.92;;
18499;SDS011;9379;52.134;11.576;2022-07-29T23:00:06;1.98;;;1.88;;
18499;SDS011;9379;52.134;11.576;2022-07-29T23:03:20;3.60;;;2.55;;
18499;SDS011;9379;52.134;11.576;2022-07-29T23:07:16;2.22;;;2.03;;
18499;SDS011;9379;52.134;11.576;2022-07-29T23:34:12;2.33;;;2.13;;
18499;SDS011;9379;52.134;11.576;2022-07-29T23:40:48;2.97;;;2.47;;
18499;SDS011;9379;52.134;11.576;2022-07-29T23:57:02;1.58;;;1.48;;
18499;SDS011;9379;52.134;11.576;2022-07-29T23:59:55;3.22;;;1.77;;
